createdAt,value
2023-02-19T00:00:19.820Z,70.29
2023-02-19T00:02:48.412Z,70.11
2023-02-19T00:05:19.021Z,69.88
2023-02-19T00:07:47.562Z,69.73
2023-02-19T00:10:16.236Z,69.70
2023-02-19T00:12:45.078Z,69.84
2023-02-19T00:15:15.404Z,69.74
2023-02-19T00:17:43.944Z,69.70
2023-02-19T00:20:16.332Z,69.80
2023-02-19T00:22:47.083Z,69.82
2023-02-19T00:25:15.422Z,69.63
2023-02-19T00:27:44.063Z,69.51
2023-02-19T00:30:12.734Z,69.90
2023-02-19T00:32:42.037Z,69.87
2023-02-19T00:35:12.585Z,69.94
2023-02-19T00:37:40.998Z,69.92
2023-02-19T00:40:09.974Z,69.84
2023-02-19T00:42:38.260Z,69.69
2023-02-19T00:45:07.001Z,69.71
2023-02-19T00:47:35.156Z,69.90
2023-02-19T00:50:03.271Z,69.65
2023-02-19T00:52:31.793Z,69.82
2023-02-19T00:55:00.322Z,69.76
2023-02-19T00:57:29.349Z,69.89
2023-02-19T00:59:57.794Z,69.84
2023-02-19T01:02:27.313Z,70.06
2023-02-19T01:04:57.902Z,69.97
2023-02-19T01:07:26.762Z,69.73
2023-02-19T01:09:55.131Z,69.81
2023-02-19T01:12:26.779Z,69.92
2023-02-19T01:14:55.848Z,70.11
2023-02-19T01:17:24.386Z,70.00
2023-02-19T01:19:53.326Z,70.08
2023-02-19T01:22:21.943Z,69.89
2023-02-19T01:24:50.163Z,70.09
2023-02-19T01:27:18.666Z,69.99
2023-02-19T01:29:51.073Z,69.97
2023-02-19T01:32:19.514Z,70.00
2023-02-19T01:34:47.779Z,69.91
2023-02-19T01:37:15.918Z,70.33
2023-02-19T01:39:44.169Z,70.43
2023-02-19T01:42:14.683Z,70.42
2023-02-19T01:44:43.193Z,70.32
2023-02-19T01:47:12.134Z,70.45
2023-02-19T01:49:48.916Z,70.43
2023-02-19T01:52:48.213Z,70.28
2023-02-19T01:55:16.554Z,70.53
2023-02-19T01:57:46.506Z,70.54
2023-02-19T02:00:17.592Z,70.47
2023-02-19T02:02:49.974Z,70.61
2023-02-19T02:05:39.751Z,70.67
2023-02-19T02:08:26.963Z,71.04
2023-02-19T02:10:55.788Z,70.98
2023-02-19T02:13:24.005Z,70.94
2023-02-19T02:16:23.329Z,70.96
2023-02-19T02:19:16.553Z,71.23
2023-02-19T02:21:51.398Z,71.24
2023-02-19T02:25:00.796Z,71.41
2023-02-19T02:27:29.421Z,71.77
2023-02-19T02:30:05.587Z,71.69
2023-02-19T02:32:53.606Z,71.57
2023-02-19T02:35:28.544Z,71.73
2023-02-19T02:37:58.348Z,71.93
2023-02-19T02:40:31.178Z,72.11
2023-02-19T02:43:00.889Z,72.05
2023-02-19T02:45:37.034Z,72.28
2023-02-19T02:48:20.748Z,72.35
2023-02-19T02:50:53.788Z,72.49
2023-02-19T02:53:44.539Z,72.77
2023-02-19T02:56:14.212Z,72.86
2023-02-19T02:58:43.910Z,73.37
2023-02-19T03:01:41.970Z,73.78
2023-02-19T03:04:14.434Z,73.83
2023-02-19T03:06:43.028Z,73.55
2023-02-19T03:09:14.854Z,74.09
2023-02-19T03:12:02.945Z,74.13
2023-02-19T03:14:58.700Z,74.65
2023-02-19T03:18:10.956Z,74.74
2023-02-19T03:20:42.103Z,74.79
2023-02-19T03:23:10.337Z,74.83
2023-02-19T03:25:58.187Z,75.03
2023-02-19T03:28:57.843Z,75.28
2023-02-19T03:31:28.116Z,75.46
2023-02-19T03:34:05.269Z,75.85
2023-02-19T03:36:40.147Z,75.73
2023-02-19T03:39:09.417Z,75.58
2023-02-19T03:42:10.552Z,75.72
2023-02-19T03:45:02.048Z,75.91
2023-02-19T03:47:36.291Z,75.90
2023-02-19T03:50:14.688Z,75.81
2023-02-19T03:53:02.683Z,75.93
2023-02-19T03:55:38.368Z,75.95
2023-02-19T03:58:21.171Z,76.36
2023-02-19T04:00:55.806Z,76.41
2023-02-19T04:03:45.498Z,76.62
2023-02-19T04:06:28.921Z,76.57
2023-02-19T04:09:03.504Z,76.63
2023-02-19T04:11:31.699Z,76.95
2023-02-19T04:14:23.822Z,77.38
2023-02-19T04:16:55.956Z,77.67
2023-02-19T04:19:26.662Z,77.85
2023-02-19T04:21:55.277Z,77.80
2023-02-19T04:24:31.265Z,78.09
2023-02-19T04:26:59.367Z,78.50
2023-02-19T04:29:27.651Z,78.76
2023-02-19T04:31:56.197Z,78.91
2023-02-19T04:34:24.487Z,78.64
2023-02-19T04:36:52.717Z,78.93
2023-02-19T04:41:18.735Z,79.59
2023-02-19T04:43:48.019Z,79.78
2023-02-19T04:46:18.479Z,79.80
2023-02-19T04:48:47.057Z,79.85
2023-02-19T04:51:15.757Z,79.72
2023-02-19T04:53:44.549Z,79.83
2023-02-19T04:56:15.753Z,79.88
2023-02-19T04:58:44.597Z,79.88
2023-02-19T05:01:13.435Z,79.74
2023-02-19T05:03:42.056Z,79.44
2023-02-19T05:06:12.477Z,79.49
2023-02-19T05:08:40.843Z,79.48
2023-02-19T05:11:11.083Z,79.44
2023-02-19T05:13:42.461Z,79.28
2023-02-19T05:16:19.142Z,79.17
2023-02-19T05:18:47.782Z,79.36
2023-02-19T05:21:16.274Z,79.69
2023-02-19T05:23:44.885Z,80.03
2023-02-19T05:26:18.037Z,80.28
2023-02-19T05:28:48.619Z,80.38
2023-02-19T05:31:17.086Z,80.65
2023-02-19T05:33:48.850Z,80.76
2023-02-19T05:36:18.682Z,80.97
2023-02-19T05:38:47.113Z,80.88
2023-02-19T05:41:21.877Z,80.85
2023-02-19T05:43:50.709Z,81.13
2023-02-19T05:46:21.178Z,81.03
2023-02-19T05:48:49.552Z,80.95
2023-02-19T05:51:19.505Z,80.73
2023-02-19T05:53:47.989Z,80.35
2023-02-19T05:56:31.847Z,80.06
2023-02-19T05:59:01.359Z,80.06
2023-02-19T06:01:30.249Z,79.73
2023-02-19T06:04:00.314Z,79.23
2023-02-19T06:06:29.494Z,78.84
2023-02-19T06:08:58.221Z,78.04
2023-02-19T06:11:29.404Z,77.81
2023-02-19T06:13:57.486Z,77.65
2023-02-19T06:16:26.669Z,77.41
2023-02-19T06:18:55.875Z,76.94
2023-02-19T06:21:24.352Z,76.95
2023-02-19T06:23:52.622Z,76.35
2023-02-19T06:26:23.135Z,76.00
2023-02-19T06:28:54.255Z,76.15
2023-02-19T06:31:23.427Z,75.67
2023-02-19T06:33:52.264Z,75.58
2023-02-19T06:36:20.943Z,75.49
2023-02-19T06:38:50.682Z,75.40
2023-02-19T06:41:20.762Z,75.16
2023-02-19T06:43:49.577Z,75.45
2023-02-19T06:46:18.576Z,75.33
2023-02-19T06:48:47.554Z,75.39
2023-02-19T06:51:26.567Z,75.79
2023-02-19T06:53:58.724Z,75.74
2023-02-19T06:56:30.978Z,75.91
2023-02-19T06:59:02.309Z,76.23
2023-02-19T07:01:32.772Z,76.52
2023-02-19T07:04:02.376Z,76.91
2023-02-19T07:06:31.398Z,76.64
2023-02-19T07:09:00.847Z,76.45
2023-02-19T07:11:32.012Z,76.59
2023-02-19T07:14:04.213Z,76.65
2023-02-19T07:16:32.565Z,76.59
2023-02-19T07:19:01.828Z,76.56
2023-02-19T07:21:31.432Z,76.30
2023-02-19T07:24:00.287Z,75.86
2023-02-19T07:26:29.458Z,76.03
2023-02-19T07:28:59.653Z,76.36
2023-02-19T07:31:28.628Z,76.24
2023-02-19T07:34:02.590Z,76.25
2023-02-19T07:36:30.976Z,75.62
2023-02-19T07:38:59.987Z,75.62
2023-02-19T07:41:29.299Z,74.89
2023-02-19T07:44:00.337Z,74.27
2023-02-19T07:46:30.373Z,73.75
2023-02-19T07:49:00.193Z,73.49
2023-02-19T07:51:30.227Z,72.92
2023-02-19T07:54:01.576Z,72.72
2023-02-19T07:56:31.032Z,72.44
2023-02-19T07:59:00.486Z,72.15
2023-02-19T08:01:48.349Z,72.61
2023-02-19T08:04:16.588Z,72.38
2023-02-19T08:06:45.068Z,72.07
2023-02-19T08:09:15.960Z,71.91
2023-02-19T08:12:11.580Z,72.37
2023-02-19T08:14:40.516Z,72.41
2023-02-19T08:17:11.356Z,72.11
2023-02-19T08:19:59.663Z,71.99
2023-02-19T08:22:28.858Z,71.80
2023-02-19T08:24:58.562Z,71.51
2023-02-19T08:27:30.226Z,70.38
2023-02-19T08:30:07.019Z,70.01
2023-02-19T08:32:36.828Z,70.37
2023-02-19T08:35:07.923Z,70.16
2023-02-19T08:37:36.324Z,70.14
2023-02-19T08:40:12.532Z,69.95
2023-02-19T08:42:41.102Z,69.64
2023-02-19T08:45:10.297Z,69.91
2023-02-19T08:47:39.476Z,70.22
2023-02-19T08:50:08.409Z,69.93
2023-02-19T08:52:36.986Z,70.29
2023-02-19T08:55:06.173Z,69.64
2023-02-19T08:57:38.584Z,69.60
2023-02-19T09:00:09.177Z,69.10
2023-02-19T09:02:37.576Z,68.63
2023-02-19T09:05:06.760Z,68.92
2023-02-19T09:07:36.783Z,69.03
2023-02-19T09:10:05.124Z,69.06
2023-02-19T09:12:33.972Z,68.99
2023-02-19T09:15:07.604Z,68.85
2023-02-19T09:17:36.406Z,68.81
2023-02-19T09:20:04.753Z,68.74
2023-02-19T09:22:34.226Z,69.19
2023-02-19T09:25:02.596Z,69.16
2023-02-19T09:27:32.441Z,69.01
2023-02-19T09:30:00.503Z,69.44
2023-02-19T09:32:31.221Z,69.33
2023-02-19T09:35:20.900Z,69.82
2023-02-19T09:37:52.630Z,69.74
2023-02-19T09:40:21.962Z,69.57
2023-02-19T09:42:54.862Z,69.82
2023-02-19T09:45:24.218Z,69.57
2023-02-19T09:47:56.543Z,69.37
2023-02-19T09:50:31.867Z,69.82
2023-02-19T09:53:03.979Z,69.49
2023-02-19T09:55:34.650Z,69.64
2023-02-19T09:58:14.304Z,69.18
2023-02-19T10:00:42.425Z,68.92
2023-02-19T10:03:12.787Z,69.04
2023-02-19T10:05:40.942Z,68.78
2023-02-19T10:08:14.472Z,68.46
2023-02-19T10:10:44.488Z,67.55
2023-02-19T10:13:20.821Z,67.94
2023-02-19T10:15:56.598Z,67.93
2023-02-19T10:18:29.548Z,67.92
2023-02-19T10:20:57.706Z,67.74
2023-02-19T10:23:26.258Z,68.51
2023-02-19T10:25:58.372Z,68.68
2023-02-19T10:28:30.514Z,68.48
2023-02-19T10:31:02.115Z,67.74
2023-02-19T10:33:30.768Z,67.48
2023-02-19T10:36:06.732Z,67.33
2023-02-19T10:38:37.018Z,67.31
2023-02-19T10:41:21.131Z,67.11
2023-02-19T10:43:57.884Z,67.22
2023-02-19T10:46:28.586Z,66.81
2023-02-19T10:49:04.667Z,66.56
2023-02-19T10:51:35.930Z,66.87
2023-02-19T10:54:31.693Z,66.88
2023-02-19T10:57:17.140Z,67.22
2023-02-19T10:59:53.287Z,67.27
2023-02-19T11:02:21.895Z,66.94
2023-02-19T11:05:17.285Z,66.36
2023-02-19T11:07:54.789Z,66.24
2023-02-19T11:10:42.409Z,66.22
2023-02-19T11:13:16.507Z,65.97
2023-02-19T11:15:45.020Z,65.13
2023-02-19T11:18:13.233Z,65.04
2023-02-19T11:20:56.314Z,64.61
2023-02-19T11:23:32.220Z,64.66
2023-02-19T11:26:03.827Z,64.45
2023-02-19T11:28:32.953Z,64.65
2023-02-19T11:31:20.066Z,64.28
2023-02-19T11:34:01.836Z,63.72
2023-02-19T11:36:34.424Z,64.30
2023-02-19T11:39:17.210Z,64.29
2023-02-19T11:41:57.496Z,64.07
2023-02-19T11:44:44.040Z,64.43
2023-02-19T11:47:50.874Z,64.98
2023-02-19T11:50:50.606Z,64.43
2023-02-19T11:53:25.343Z,64.53
2023-02-19T11:56:44.782Z,64.05
2023-02-19T11:59:21.614Z,64.02
2023-02-19T12:02:14.703Z,63.98
2023-02-19T12:04:53.484Z,63.56
2023-02-19T12:07:49.051Z,63.38
2023-02-19T12:10:20.392Z,63.49
2023-02-19T12:13:10.531Z,63.46
2023-02-19T12:19:04.147Z,63.50
2023-02-19T12:21:51.694Z,63.09
2023-02-19T12:24:27.341Z,63.54
2023-02-19T12:27:02.015Z,63.63
2023-02-19T12:29:48.208Z,63.60
2023-02-19T12:32:16.973Z,64.09
2023-02-19T12:34:51.618Z,63.97
2023-02-19T12:37:31.814Z,63.81
2023-02-19T12:40:31.795Z,63.54
2023-02-19T12:43:23.825Z,63.80
2023-02-19T12:45:58.278Z,63.43
2023-02-19T12:48:39.094Z,63.14
2023-02-19T12:51:12.078Z,62.91
2023-02-19T12:54:01.531Z,63.09
2023-02-19T12:56:40.228Z,63.23
2023-02-19T12:59:23.813Z,63.50
2023-02-19T13:02:04.226Z,63.54
2023-02-19T13:04:39.306Z,63.19
2023-02-19T13:07:17.348Z,62.88
2023-02-19T13:10:22.452Z,63.13
2023-02-19T13:12:51.815Z,62.12
2023-02-19T13:15:41.772Z,62.23
2023-02-19T13:18:16.477Z,62.46
2023-02-19T13:20:51.822Z,62.46
2023-02-19T13:23:52.679Z,61.93
2023-02-19T13:26:33.430Z,61.96
2023-02-19T13:29:25.079Z,62.05
2023-02-19T13:32:21.519Z,61.65
2023-02-19T13:35:27.647Z,61.51
2023-02-19T13:37:56.233Z,61.29
2023-02-19T13:40:31.173Z,61.33
2023-02-19T13:43:00.917Z,60.80
2023-02-19T13:45:43.468Z,60.86
2023-02-19T13:48:46.418Z,61.19
2023-02-19T13:51:19.164Z,60.75
2023-02-19T13:53:48.330Z,60.92
2023-02-19T13:56:34.990Z,61.12
2023-02-19T13:59:34.035Z,61.53
2023-02-19T14:02:05.276Z,61.50
2023-02-19T14:05:00.314Z,61.61
2023-02-19T14:07:31.876Z,61.79
2023-02-19T14:10:02.168Z,61.76
2023-02-19T14:12:36.945Z,61.83
2023-02-19T14:15:30.165Z,61.94
2023-02-19T14:17:58.890Z,62.04
2023-02-19T14:20:45.000Z,61.94
2023-02-19T14:23:17.621Z,62.23
2023-02-19T14:25:53.316Z,61.92
2023-02-19T14:28:27.821Z,62.08
2023-02-19T14:31:01.390Z,62.39
2023-02-19T14:33:34.938Z,62.38
2023-02-19T14:36:44.514Z,62.46
2023-02-19T14:39:17.505Z,62.56
2023-02-19T14:42:15.882Z,62.60
2023-02-19T14:44:52.616Z,62.49
2023-02-19T14:47:22.089Z,62.93
2023-02-19T14:49:52.387Z,62.70
2023-02-19T14:52:24.880Z,62.97
2023-02-19T14:54:55.716Z,63.10
2023-02-19T14:57:45.579Z,63.20
2023-02-19T15:00:24.228Z,63.23
2023-02-19T15:02:54.004Z,63.36
2023-02-19T15:05:24.515Z,63.64
2023-02-19T15:07:53.935Z,63.52
2023-02-19T15:10:22.157Z,63.61
2023-02-19T15:12:58.230Z,63.80
2023-02-19T15:15:29.255Z,63.91
2023-02-19T15:17:57.200Z,63.83
2023-02-19T15:20:30.509Z,63.86
2023-02-19T15:22:59.617Z,63.96
2023-02-19T15:25:34.064Z,63.96
2023-02-19T15:28:24.159Z,64.07
2023-02-19T15:30:57.846Z,64.18
2023-02-19T15:33:29.562Z,64.30
2023-02-19T15:35:59.315Z,64.19
2023-02-19T15:38:29.876Z,64.37
2023-02-19T15:41:00.678Z,64.53
2023-02-19T15:43:59.179Z,64.63
2023-02-19T15:46:28.017Z,64.66
2023-02-19T15:49:13.254Z,64.75
2023-02-19T15:51:54.940Z,64.86
2023-02-19T15:55:00.400Z,64.84
2023-02-19T15:57:32.723Z,64.76
2023-02-19T16:00:07.628Z,65.03
2023-02-19T16:02:43.906Z,64.96
2023-02-19T16:05:24.097Z,65.22
2023-02-19T16:08:17.460Z,65.11
2023-02-19T16:10:54.479Z,65.26
2023-02-19T16:13:34.016Z,65.14
2023-02-19T16:16:15.241Z,65.37
2023-02-19T16:18:48.179Z,65.40
2023-02-19T16:21:20.299Z,65.45
2023-02-19T16:23:49.957Z,65.47
2023-02-19T16:26:18.104Z,65.29
2023-02-19T16:28:46.395Z,65.29
2023-02-19T16:31:15.415Z,65.28
2023-02-19T16:33:48.652Z,65.44
2023-02-19T16:36:18.752Z,65.39
2023-02-19T16:39:07.056Z,65.66
2023-02-19T16:41:41.195Z,65.41
2023-02-19T16:44:22.027Z,65.43
2023-02-19T16:47:27.102Z,65.65
2023-02-19T16:50:00.520Z,65.59
2023-02-19T16:53:02.746Z,65.50
2023-02-19T16:55:35.263Z,65.59
2023-02-19T16:59:19.996Z,65.45
2023-02-19T17:01:48.330Z,65.59
2023-02-19T17:04:16.483Z,65.33
2023-02-19T17:06:45.668Z,65.33
2023-02-19T17:09:14.874Z,65.34
2023-02-19T17:11:43.063Z,65.56
2023-02-19T17:14:11.377Z,65.49
2023-02-19T17:16:40.654Z,65.63
2023-02-19T17:19:18.780Z,65.53
2023-02-19T17:21:47.696Z,65.83
2023-02-19T17:24:21.182Z,65.93
2023-02-19T17:26:49.848Z,66.11
2023-02-19T17:29:20.319Z,66.38
2023-02-19T17:31:48.721Z,66.69
2023-02-19T17:34:17.876Z,66.81
2023-02-19T17:36:47.171Z,67.04
2023-02-19T17:39:15.619Z,67.21
2023-02-19T17:41:43.865Z,67.25
2023-02-19T17:44:13.678Z,67.46
2023-02-19T17:46:42.119Z,67.69
2023-02-19T17:49:11.413Z,68.09
2023-02-19T17:51:40.556Z,68.02
2023-02-19T17:54:11.315Z,68.05
2023-02-19T17:56:43.436Z,67.86
2023-02-19T17:59:12.479Z,68.07
2023-02-19T18:01:40.812Z,67.73
2023-02-19T18:04:11.399Z,67.89
2023-02-19T18:06:39.713Z,67.58
2023-02-19T18:09:08.150Z,67.64
2023-02-19T18:11:37.627Z,67.70
2023-02-19T18:14:14.634Z,67.61
2023-02-19T18:16:50.009Z,67.65
2023-02-19T18:19:18.659Z,67.31
2023-02-19T18:21:49.542Z,67.67
2023-02-19T18:24:21.526Z,67.49
2023-02-19T18:26:50.388Z,67.51
2023-02-19T18:29:20.451Z,67.58
2023-02-19T18:31:50.089Z,67.67
2023-02-19T18:34:19.189Z,67.89
2023-02-19T18:36:51.160Z,68.17
2023-02-19T18:39:19.616Z,68.27
2023-02-19T18:41:53.293Z,68.42
2023-02-19T18:44:22.457Z,68.39
2023-02-19T18:46:51.471Z,68.34
2023-02-19T18:49:19.784Z,68.58
2023-02-19T18:51:48.260Z,68.55
2023-02-19T18:54:17.489Z,68.59
2023-02-19T18:56:46.479Z,68.69
2023-02-19T18:59:16.486Z,68.89
2023-02-19T19:01:45.081Z,68.87
2023-02-19T19:04:15.749Z,69.12
2023-02-19T19:06:44.938Z,69.30
2023-02-19T19:09:13.905Z,69.45
2023-02-19T19:11:44.720Z,69.60
2023-02-19T19:14:13.801Z,69.94
2023-02-19T19:16:43.468Z,69.87
2023-02-19T19:19:12.950Z,69.74
2023-02-19T19:21:41.549Z,69.82
2023-02-19T19:24:09.966Z,69.98
2023-02-19T19:26:45.085Z,69.97
2023-02-19T19:29:16.014Z,69.91
2023-02-19T19:31:44.793Z,69.94
2023-02-19T19:34:13.373Z,69.84
2023-02-19T19:36:41.621Z,70.00
2023-02-19T19:39:10.653Z,69.96
2023-02-19T19:41:41.609Z,70.13
2023-02-19T19:44:11.557Z,70.07
2023-02-19T19:46:45.435Z,69.95
2023-02-19T19:49:20.262Z,69.98
2023-02-19T19:51:50.100Z,69.89
2023-02-19T19:54:18.523Z,69.68
2023-02-19T19:56:51.282Z,69.63
2023-02-19T19:59:19.457Z,69.58
2023-02-19T20:01:51.422Z,69.72
2023-02-19T20:04:21.747Z,69.66
2023-02-19T20:06:50.652Z,69.75
2023-02-19T20:09:26.007Z,69.71
2023-02-19T20:11:55.364Z,69.86
2023-02-19T20:14:24.795Z,69.92
2023-02-19T20:16:55.211Z,70.06
2023-02-19T20:19:26.398Z,70.16
2023-02-19T20:21:55.343Z,70.29
2023-02-19T20:24:26.299Z,70.53
2023-02-19T20:26:59.909Z,70.33
2023-02-19T20:29:32.380Z,70.65
2023-02-19T20:32:03.825Z,70.67
2023-02-19T20:34:38.444Z,70.75
2023-02-19T20:37:07.746Z,70.85
2023-02-19T20:39:38.148Z,70.87
2023-02-19T20:42:09.394Z,70.99
2023-02-19T20:44:37.948Z,71.04
2023-02-19T20:47:06.611Z,71.10
2023-02-19T20:49:37.207Z,71.06
2023-02-19T20:52:07.059Z,70.98
2023-02-19T20:54:38.464Z,70.77
2023-02-19T20:57:06.711Z,70.91
2023-02-19T20:59:35.598Z,70.78
2023-02-19T21:02:14.464Z,70.86
2023-02-19T21:04:44.669Z,70.89
2023-02-19T21:07:12.833Z,71.04
2023-02-19T21:09:41.136Z,71.04
2023-02-19T21:12:11.275Z,71.44
2023-02-19T21:14:41.754Z,71.49
2023-02-19T21:17:10.954Z,71.66
2023-02-19T21:19:40.619Z,71.82
2023-02-19T21:22:08.689Z,71.83
2023-02-19T21:24:37.354Z,71.92
2023-02-19T21:27:08.149Z,72.07
2023-02-19T21:29:36.348Z,72.21
2023-02-19T21:32:07.373Z,72.19
2023-02-19T21:34:38.499Z,72.72
2023-02-19T21:37:09.079Z,72.95
2023-02-19T21:39:39.547Z,72.95
2023-02-19T21:42:07.789Z,72.90
2023-02-19T21:44:43.221Z,72.93
2023-02-19T21:47:17.184Z,73.17
2023-02-19T21:49:46.473Z,73.20
2023-02-19T21:52:16.319Z,73.54
2023-02-19T21:54:45.663Z,73.60
2023-02-19T21:57:15.116Z,73.80
2023-02-19T21:59:45.806Z,73.99
2023-02-19T22:02:14.753Z,73.81
2023-02-19T22:04:44.353Z,73.98
2023-02-19T22:07:13.904Z,73.90
2023-02-19T22:09:43.027Z,74.09
2023-02-19T22:12:13.994Z,74.25
2023-02-19T22:14:44.570Z,74.27
2023-02-19T22:17:14.580Z,74.30
2023-02-19T22:19:43.354Z,74.37
2023-02-19T22:22:11.827Z,74.34
2023-02-19T22:24:40.840Z,74.45
2023-02-19T22:27:10.549Z,74.45
2023-02-19T22:29:39.188Z,74.42
2023-02-19T22:32:10.113Z,74.44
2023-02-19T22:34:40.541Z,74.50
2023-02-19T22:37:10.311Z,74.43
2023-02-19T22:39:43.637Z,74.40
2023-02-19T22:42:12.404Z,74.21
2023-02-19T22:44:44.537Z,74.28
2023-02-19T22:47:14.731Z,74.19
2023-02-19T22:49:45.609Z,74.32
2023-02-19T22:52:14.916Z,74.25
2023-02-19T22:54:44.554Z,74.26
2023-02-19T22:57:12.914Z,74.13
2023-02-19T22:59:42.114Z,73.79
2023-02-19T23:02:10.408Z,73.60
2023-02-19T23:04:38.753Z,73.41
2023-02-19T23:07:07.614Z,73.09
2023-02-19T23:09:35.951Z,72.85
2023-02-19T23:12:06.314Z,72.82
2023-02-19T23:14:34.965Z,72.86
2023-02-19T23:17:03.668Z,72.69
2023-02-19T23:19:32.637Z,72.47
2023-02-19T23:22:01.876Z,72.29
2023-02-19T23:24:30.665Z,72.17
2023-02-19T23:27:00.927Z,72.17
2023-02-19T23:29:31.022Z,72.24
2023-02-19T23:32:00.566Z,72.10
2023-02-19T23:34:29.466Z,72.05
2023-02-19T23:37:00.279Z,72.09
2023-02-19T23:39:28.911Z,72.01
2023-02-19T23:42:03.296Z,71.77
2023-02-19T23:44:32.157Z,71.70
2023-02-19T23:47:00.788Z,71.82
2023-02-19T23:49:29.008Z,71.81
2023-02-19T23:51:57.338Z,71.77
2023-02-19T23:54:26.178Z,71.54
2023-02-19T23:56:55.520Z,71.47
2023-02-19T23:59:24.093Z,71.50
